Time;durP1;ratioP1;P1;durP2;ratioP2;P2;SDS_P1;SDS_P2;PMS_P1;PMS_P2;Temp;Humidity;BMP_temperature;BMP_pressure;BME280_temperature;BME280_humidity;BME280_pressure;Samples;Min_cycle;Max_cycle;Signal;HPM_P1;HPM_P2
2022/09/08 00:01:41;;;;;;;10.02;1.80;;;20.10;72.40;;;;;;7373548;19;20117;-81
2022/09/08 00:04:10;;;;;;;5.05;1.48;;;20.00;72.70;;;;;;7375548;19;20077;-81
2022/09/08 00:06:39;;;;;;;5.50;1.77;;;19.80;73.00;;;;;;7385782;19;20022;-80
2022/09/08 00:09:08;;;;;;;8.73;1.60;;;19.80;73.40;;;;;;7416165;19;20010;-81
2022/09/08 00:11:41;;;;;;;11.05;1.77;;;19.80;72.90;;;;;;7395396;19;20011;-80
2022/09/08 00:14:12;;;;;;;6.78;1.40;;;19.80;73.60;;;;;;7380513;19;20448;-81
2022/09/08 00:16:41;;;;;;;;;;;19.90;73.50;;;;;;7377595;19;20070;-81
2022/09/08 00:19:10;;;;;;;7.35;1.77;;;19.60;73.30;;;;;;7380694;19;19956;-82
2022/09/08 00:21:38;;;;;;;7.50;2.00;;;19.70;74.20;;;;;;7386017;19;20018;-81
2022/09/08 00:24:07;;;;;;;4.13;1.83;;;19.90;73.40;;;;;;7404663;19;20036;-82
2022/09/08 00:26:36;;;;;;;7.78;1.60;;;19.80;73.40;;;;;;7371851;19;20011;-81
2022/09/08 00:29:05;;;;;;;7.28;1.55;;;19.80;73.00;;;;;;7375909;19;20083;-81
2022/09/08 00:31:39;;;;;;;11.25;1.98;;;19.90;73.10;;;;;;7378702;19;20715;-81
2022/09/08 00:34:08;;;;;;;4.35;1.70;;;20.00;73.00;;;;;;7373977;19;20019;-82
2022/09/08 00:36:37;;;;;;;8.68;1.80;;;19.90;71.90;;;;;;7393776;19;20028;-81
2022/09/08 00:39:06;;;;;;;7.05;1.55;;;19.80;72.80;;;;;;7394949;19;20040;-82
2022/09/08 00:41:35;;;;;;;4.43;1.35;;;19.90;72.90;;;;;;7371592;19;20200;-81
2022/09/08 00:44:34;;;;;;;8.10;1.50;;;19.90;72.90;;;;;;7371926;19;20557;-81
2022/09/08 00:47:06;;;;;;;10.27;1.50;;;20.00;72.70;;;;;;7371730;19;20821;-81
2022/09/08 00:49:35;;;;;;;7.72;1.52;;;20.10;72.90;;;;;;7373757;19;20082;-82
2022/09/08 00:52:08;;;;;;;9.55;1.65;;;20.10;72.30;;;;;;7377967;19;20048;-82
2022/09/08 00:54:38;;;;;;;10.30;1.90;;;20.20;72.40;;;;;;7401296;19;20018;-81
2022/09/08 00:57:07;;;;;;;10.07;2.03;;;20.20;72.90;;;;;;7396308;19;20029;-82
2022/09/08 00:59:38;;;;;;;6.28;1.73;;;20.30;72.60;;;;;;7371616;19;20021;-82
2022/09/08 01:02:25;;;;;;;9.73;1.88;;;20.40;72.30;;;;;;7371846;19;20039;-81
2022/09/08 01:04:59;;;;;;;6.28;1.67;;;20.40;71.80;;;;;;7385246;19;20006;-82
2022/09/08 01:13:22;;;;;;;9.18;1.70;;;20.40;72.70;;;;;;7378461;19;20056;-82
2022/09/08 01:15:51;;;;;;;7.33;1.93;;;20.30;71.40;;;;;;7380038;19;20018;-82
2022/09/08 01:18:22;;;;;;;9.23;1.60;;;20.20;71.90;;;;;;7400559;19;20290;-81
2022/09/08 01:20:58;;;;;;;7.18;1.38;;;20.30;71.90;;;;;;7381556;19;20082;-82
2022/09/08 01:23:59;;;;;;;4.03;1.40;;;20.20;72.20;;;;;;7377605;19;20351;-83
2022/09/08 01:26:41;;;;;;;8.65;1.45;;;20.10;72.20;;;;;;7378134;19;20078;-81
2022/09/08 01:29:13;;;;;;;5.00;1.70;;;20.10;72.30;;;;;;7382909;19;20021;-82
2022/09/08 01:31:44;;;;;;;5.38;1.50;;;20.00;72.60;;;;;;7388039;19;20086;-81
2022/09/08 01:34:13;;;;;;;9.88;1.77;;;20.10;71.90;;;;;;7389324;19;20089;-81
2022/09/08 01:36:42;;;;;;;6.05;1.83;;;20.10;72.20;;;;;;7383503;19;20086;-81
2022/09/08 01:39:10;;;;;;;7.70;2.13;;;20.10;72.00;;;;;;7401578;19;20105;-81
2022/09/08 01:41:39;;;;;;;9.27;1.80;;;20.00;73.30;;;;;;7378618;19;20039;-81
2022/09/08 01:44:08;;;;;;;5.47;1.38;;;20.10;72.70;;;;;;7378118;19;20010;-82
2022/09/08 01:46:39;;;;;;;6.93;1.67;;;20.10;72.00;;;;;;7381617;19;20077;-81
2022/09/08 01:49:08;;;;;;;5.65;1.70;;;20.00;71.90;;;;;;7399400;19;20015;-81
2022/09/08 01:51:37;;;;;;;9.65;1.70;;;20.00;72.20;;;;;;7422381;19;20488;-81
2022/09/08 01:54:06;;;;;;;10.70;1.92;;;20.20;72.20;;;;;;7377663;19;20018;-82
2022/09/08 01:56:35;;;;;;;5.03;1.90;;;20.10;72.00;;;;;;7375281;19;20926;-81
2022/09/08 01:59:04;;;;;;;6.97;1.88;;;20.00;72.20;;;;;;7376532;19;20015;-81
2022/09/08 02:01:33;;;;;;;9.63;1.73;;;20.00;72.70;;;;;;7375818;19;20093;-81
2022/09/08 02:04:05;;;;;;;12.05;1.80;;;20.20;72.60;;;;;;7375878;19;20025;-81
2022/09/08 02:06:33;;;;;;;6.95;1.67;;;20.20;72.60;;;;;;7402934;19;20023;-82
2022/09/08 02:09:02;;;;;;;6.22;1.77;;;20.20;72.20;;;;;;7387987;19;20926;-82
2022/09/08 02:11:31;;;;;;;5.72;1.63;;;20.30;72.00;;;;;;7386399;19;20031;-81
2022/09/08 02:14:00;;;;;;;5.70;1.67;;;20.30;72.20;;;;;;7376200;19;20737;-81
2022/09/08 02:16:29;;;;;;;9.93;1.65;;;20.40;72.10;;;;;;7380442;19;20089;-81
2022/09/08 02:18:59;;;;;;;10.68;1.63;;;20.30;71.90;;;;;;7380917;19;20032;-81
2022/09/08 02:21:30;;;;;;;8.77;1.67;;;20.30;71.60;;;;;;7404106;19;20119;-81
2022/09/08 02:23:59;;;;;;;8.23;2.33;;;20.30;71.90;;;;;;7374914;19;20077;-81
2022/09/08 02:26:30;;;;;;;5.43;1.42;;;20.20;71.70;;;;;;7376716;19;20018;-81
2022/09/08 02:28:59;;;;;;;4.57;1.63;;;20.20;72.00;;;;;;7374992;19;20031;-81
2022/09/08 02:31:31;;;;;;;12.65;1.92;;;20.10;72.20;;;;;;7382084;19;20073;-81
2022/09/08 02:33:59;;;;;;;9.98;1.90;;;20.20;72.40;;;;;;7381877;19;20446;-81
2022/09/08 02:36:31;;;;;;;11.20;2.10;;;20.00;72.30;;;;;;7406233;19;20035;-81
2022/09/08 02:39:00;;;;;;;8.07;2.33;;;20.20;71.90;;;;;;7381181;19;20015;-81
2022/09/08 02:41:30;;;;;;;8.88;1.88;;;20.00;72.20;;;;;;7378094;19;20645;-81
2022/09/08 02:43:59;;;;;;;9.43;1.90;;;20.00;72.00;;;;;;7376843;19;20055;-81
2022/09/08 02:46:31;;;;;;;7.32;2.03;;;20.00;72.40;;;;;;7384153;19;20101;-81
2022/09/08 02:49:00;;;;;;;5.63;1.60;;;20.00;71.80;;;;;;7385051;19;20101;-81
2022/09/08 02:51:31;;;;;;;6.63;1.90;;;20.00;72.00;;;;;;7405233;19;20018;-81
2022/09/08 02:53:59;;;;;;;;;;;20.00;72.40;;;;;;7382909;19;20014;-81
2022/09/08 02:56:28;;;;;;;7.47;2.20;;;19.90;72.60;;;;;;7380956;19;19986;-81
2022/09/08 02:58:57;;;;;;;13.93;1.63;;;19.80;72.50;;;;;;7375996;19;20079;-82
2022/09/08 03:01:25;;;;;;;7.85;2.03;;;19.80;73.00;;;;;;7380327;19;20058;-82
2022/09/08 03:03:54;;;;;;;6.45;1.98;;;19.90;72.70;;;;;;7386572;19;20052;-82
2022/09/08 03:06:23;;;;;;;15.02;2.35;;;20.00;72.70;;;;;;7405298;19;20030;-81
2022/09/08 03:08:54;;;;;;;10.48;2.20;;;20.00;72.30;;;;;;7375969;19;20109;-81
2022/09/08 03:11:23;;;;;;;9.27;1.92;;;20.00;72.20;;;;;;7375226;19;20017;-82
2022/09/08 03:13:52;;;;;;;7.05;1.95;;;20.10;71.90;;;;;;7374099;19;20039;-82
2022/09/08 03:16:21;;;;;;;9.07;2.00;;;20.00;72.10;;;;;;7376161;19;20013;-83
2022/09/08 03:18:50;;;;;;;10.82;2.20;;;20.00;72.90;;;;;;7375460;19;20296;-81
2022/09/08 03:21:19;;;;;;;9.10;2.10;;;20.00;72.80;;;;;;7396082;19;20022;-82
2022/09/08 03:23:47;;;;;;;6.40;2.03;;;20.00;72.70;;;;;;7373845;19;20021;-82
2022/09/08 03:26:22;;;;;;;10.23;2.60;;;20.00;73.30;;;;;;7378375;19;20035;-82
2022/09/08 03:28:51;;;;;;;9.23;2.55;;;20.00;72.50;;;;;;7390077;19;20023;-82
2022/09/08 03:31:22;;;;;;;6.22;2.28;;;20.00;72.70;;;;;;7394912;19;20035;-82
2022/09/08 03:34:10;;;;;;;13.18;2.50;;;20.00;72.40;;;;;;7395071;19;20028;-82
2022/09/08 03:36:39;;;;;;;11.20;2.72;;;19.80;72.30;;;;;;7375523;19;20014;-82
2022/09/08 03:39:08;;;;;;;7.35;2.22;;;19.80;72.60;;;;;;7402106;19;20022;-82
2022/09/08 03:41:40;;;;;;;13.45;2.70;;;19.90;72.60;;;;;;7386401;19;20019;-82
2022/09/08 03:44:08;;;;;;;10.77;2.17;;;19.80;72.90;;;;;;7385246;19;20010;-82
2022/09/08 03:46:37;;;;;;;13.40;2.15;;;19.90;72.60;;;;;;7383167;19;20093;-82
2022/09/08 03:49:06;;;;;;;12.05;2.38;;;19.90;72.40;;;;;;7383164;19;20070;-82
2022/09/08 03:51:35;;;;;;;13.88;2.53;;;19.90;72.60;;;;;;7404854;19;20033;-82
2022/09/08 03:56:48;;;;;;;14.30;3.40;;;19.80;71.70;;;;;;7383055;19;20022;-82
2022/09/08 03:59:17;;;;;;;23.65;6.28;;;19.60;73.00;;;;;;7387156;19;20022;-82
2022/09/08 04:01:46;;;;;;;20.70;5.78;;;19.50;72.80;;;;;;7387213;19;20027;-82
2022/09/08 04:04:16;;;;;;;20.65;6.68;;;19.50;73.00;;;;;;7387518;19;20022;-81
2022/09/08 04:06:45;;;;;;;17.40;4.78;;;19.30;74.30;;;;;;7385467;19;20543;-81
2022/09/08 04:09:13;;;;;;;10.73;3.60;;;19.50;74.10;;;;;;7405839;19;20024;-82
2022/09/08 04:11:42;;;;;;;9.93;3.22;;;19.70;73.40;;;;;;7382418;19;20066;-81
2022/09/08 04:14:13;;;;;;;13.27;3.30;;;19.60;73.50;;;;;;7381162;19;20505;-82
2022/09/08 04:16:42;;;;;;;14.93;2.97;;;19.80;73.30;;;;;;7384683;19;20035;-81
2022/09/08 04:19:12;;;;;;;14.95;3.30;;;19.60;72.80;;;;;;7390379;19;20098;-82
2022/09/08 04:21:41;;;;;;;17.70;3.13;;;19.60;73.30;;;;;;7391680;19;20031;-81
2022/09/08 04:24:13;;;;;;;14.60;3.28;;;19.40;73.70;;;;;;7408688;19;20019;-82
2022/09/08 04:26:44;;;;;;;10.25;2.53;;;19.40;74.00;;;;;;7388528;19;20542;-82
2022/09/08 04:29:15;;;;;;;15.93;3.05;;;19.50;73.80;;;;;;7386175;19;20426;-82
2022/09/08 04:31:46;;;;;;;14.93;3.22;;;19.50;73.60;;;;;;7384181;19;20023;-82
2022/09/08 04:34:15;;;;;;;13.48;2.65;;;19.50;74.10;;;;;;7381537;19;20051;-82
2022/09/08 04:36:47;;;;;;;9.23;2.22;;;19.60;73.80;;;;;;7375917;19;20019;-82
2022/09/08 04:39:16;;;;;;;;;;;19.30;74.10;;;;;;7400073;19;20102;-82
2022/09/08 04:41:45;;;;;;;14.07;3.33;;;19.40;74.20;;;;;;7382625;19;19993;-82
2022/09/08 04:44:16;;;;;;;12.52;2.95;;;19.40;74.20;;;;;;7380913;19;20022;-81
2022/09/08 04:46:45;;;;;;;16.15;3.38;;;19.30;74.40;;;;;;7383628;19;20089;-82
2022/09/08 04:49:14;;;;;;;11.30;3.45;;;19.00;75.50;;;;;;7386639;19;20075;-82
2022/09/08 04:51:43;;;;;;;13.85;3.15;;;19.10;75.90;;;;;;7388816;19;20139;-82
2022/09/08 04:54:12;;;;;;;16.58;3.08;;;19.20;75.50;;;;;;7407975;19;20529;-82
2022/09/08 04:56:41;;;;;;;16.65;2.92;;;19.40;75.20;;;;;;7388925;19;20015;-82
2022/09/08 04:59:10;;;;;;;13.95;3.35;;;19.20;74.60;;;;;;7388201;19;20027;-82
2022/09/08 05:01:41;;;;;;;9.90;2.88;;;18.80;76.30;;;;;;7382796;19;20833;-82
2022/09/08 05:04:11;;;;;;;15.27;3.17;;;18.90;76.80;;;;;;7381292;19;20018;-82
2022/09/08 05:06:43;;;;;;;13.57;2.92;;;18.60;77.10;;;;;;7385862;19;20074;-82
2022/09/08 05:09:25;;;;;;;12.15;2.75;;;18.90;76.90;;;;;;7419704;19;20046;-82
2022/09/08 05:11:53;;;;;;;;;;;18.90;76.40;;;;;;7394637;19;20010;-81
2022/09/08 05:14:34;;;;;;;13.50;3.67;;;19.00;76.00;;;;;;7384521;19;19910;-82
2022/09/08 05:17:10;;;;;;;18.98;6.85;;;19.30;75.20;;;;;;7380075;19;20022;-82
2022/09/08 05:19:38;;;;;;;25.35;6.75;;;19.30;75.00;;;;;;7380867;19;20055;-82
2022/09/08 05:22:07;;;;;;;20.73;5.25;;;19.40;74.90;;;;;;7380358;19;20108;-82
2022/09/08 05:24:36;;;;;;;14.43;4.28;;;19.40;74.50;;;;;;7401215;19;20081;-81
2022/09/08 05:27:04;;;;;;;17.70;3.95;;;19.50;74.40;;;;;;7381125;19;20014;-81
2022/09/08 05:29:33;;;;;;;13.80;3.15;;;19.60;74.50;;;;;;7381981;19;20094;-83
2022/09/08 05:32:07;;;;;;;14.73;3.30;;;19.60;74.40;;;;;;7386534;19;20018;-82
2022/09/08 05:34:36;;;;;;;22.15;5.55;;;19.50;73.60;;;;;;7390608;19;20489;-81
2022/09/08 05:37:04;;;;;;;13.93;3.80;;;19.30;74.30;;;;;;7391007;19;20073;-82
2022/09/08 05:39:33;;;;;;;12.23;2.83;;;19.20;75.20;;;;;;7409874;19;20031;-81
2022/09/08 05:42:02;;;;;;;10.75;3.40;;;19.10;75.00;;;;;;7387138;19;20438;-82
2022/09/08 05:44:31;;;;;;;12.93;3.15;;;19.10;76.50;;;;;;7383587;19;20018;-81
2022/09/08 05:46:59;;;;;;;17.48;3.13;;;19.30;75.00;;;;;;7381789;19;20010;-82
2022/09/08 05:49:31;;;;;;;9.00;2.40;;;19.20;75.10;;;;;;7380889;19;20388;-81
2022/09/08 05:52:00;;;;;;;16.77;3.05;;;19.30;76.10;;;;;;7381457;19;20039;-81
2022/09/08 05:54:29;;;;;;;21.67;3.83;;;19.10;75.60;;;;;;7403689;19;20006;-81
2022/09/08 05:56:58;;;;;;;14.45;3.00;;;19.20;75.20;;;;;;7383822;19;20007;-82
2022/09/08 05:59:27;;;;;;;17.00;3.08;;;19.20;75.60;;;;;;7380328;19;20427;-81
2022/09/08 06:01:56;;;;;;;19.52;3.20;;;19.30;75.20;;;;;;7378070;19;20098;-81
2022/09/08 06:04:25;;;;;;;18.50;3.17;;;19.40;74.90;;;;;;7378484;19;20011;-81
2022/09/08 06:06:57;;;;;;;20.30;3.50;;;19.20;74.60;;;;;;7381777;19;20014;-81
2022/09/08 06:09:25;;;;;;;14.50;2.85;;;19.10;75.30;;;;;;7411562;19;20027;-81
2022/09/08 06:11:54;;;;;;;15.90;2.95;;;19.00;75.70;;;;;;7390634;19;20015;-81
2022/09/08 06:14:23;;;;;;;11.80;2.80;;;19.30;75.20;;;;;;7389158;19;20014;-82
2022/09/08 06:16:51;;;;;;;15.38;3.35;;;19.40;74.90;;;;;;7381135;19;20020;-81
2022/09/08 06:19:20;;;;;;;23.92;3.70;;;19.50;74.00;;;;;;7379459;19;20089;-81
2022/09/08 06:21:49;;;;;;;17.90;3.45;;;19.40;74.40;;;;;;7378978;19;20023;-81
2022/09/08 06:24:20;;;;;;;13.20;3.17;;;19.30;74.00;;;;;;7396431;19;20119;-82
2022/09/08 06:26:52;;;;;;;;;;;19.30;74.70;;;;;;7377717;19;20086;-82
2022/09/08 06:29:34;;;;;;;22.10;3.40;;;19.40;73.30;;;;;;7377295;19;20350;-81
2022/09/08 06:32:06;;;;;;;18.52;3.83;;;19.40;73.80;;;;;;7391536;19;20006;-82
2022/09/08 06:34:43;;;;;;;12.75;3.47;;;19.40;74.60;;;;;;7392700;19;20010;-81
2022/09/08 06:37:24;;;;;;;22.17;4.18;;;19.70;74.10;;;;;;7383269;19;20018;-81
2022/09/08 06:40:02;;;;;;;21.95;3.88;;;19.80;72.80;;;;;;7384018;19;20513;-81
2022/09/08 06:42:38;;;;;;;16.98;3.63;;;19.60;73.30;;;;;;7400535;19;20010;-81
2022/09/08 06:45:14;;;;;;;18.50;4.15;;;19.40;73.60;;;;;;7380043;19;20089;-81
2022/09/08 06:47:50;;;;;;;18.20;3.95;;;19.30;74.20;;;;;;7386230;19;20014;-81
2022/09/08 06:50:19;;;;;;;12.75;3.33;;;19.20;75.00;;;;;;7399318;19;20023;-81
2022/09/08 06:52:52;;;;;;;11.02;3.20;;;19.50;74.10;;;;;;7396720;19;20022;-81
2022/09/08 06:55:32;;;;;;;17.88;3.75;;;19.50;73.00;;;;;;7380570;19;20018;-81
2022/09/08 06:58:17;;;;;;;19.13;3.22;;;19.40;73.50;;;;;;7382137;19;20015;-81
2022/09/08 07:00:50;;;;;;;19.27;3.70;;;19.30;73.90;;;;;;7380522;19;20022;-81
2022/09/08 07:03:43;;;;;;;14.10;3.50;;;19.30;74.00;;;;;;7404145;19;20113;-81
2022/09/08 07:06:13;;;;;;;17.05;3.58;;;19.50;73.50;;;;;;7377085;19;20070;-81
2022/09/08 07:09:02;;;;;;;27.05;4.72;;;19.40;73.80;;;;;;7381571;19;20018;-82
2022/09/08 07:11:44;;;;;;;16.38;3.47;;;19.50;73.70;;;;;;7386475;19;20014;-81
2022/09/08 07:14:34;;;;;;;19.42;3.40;;;19.80;73.70;;;;;;7378589;19;20035;-81
2022/09/08 07:17:06;;;;;;;12.70;3.10;;;20.10;72.70;;;;;;7374520;19;20015;-82
2022/09/08 07:19:47;;;;;;;15.65;3.25;;;20.40;72.10;;;;;;7374911;19;20034;-81
2022/09/08 07:22:25;;;;;;;18.13;3.67;;;20.30;71.40;;;;;;7373100;19;20101;-82
2022/09/08 07:25:08;;;;;;;15.60;3.15;;;20.40;71.80;;;;;;7372827;19;20069;-81
2022/09/08 07:27:40;;;;;;;23.42;3.65;;;20.40;71.10;;;;;;7394233;19;20021;-80
2022/09/08 07:30:16;;;;;;;16.15;3.40;;;20.40;71.20;;;;;;7392904;19;20019;-81
2022/09/08 07:32:49;;;;;;;14.50;3.42;;;20.20;71.00;;;;;;7375774;19;20023;-82
2022/09/08 07:35:26;;;;;;;20.52;3.90;;;20.20;71.30;;;;;;7380208;19;20038;-81
2022/09/08 07:37:57;;;;;;;21.60;4.20;;;20.20;71.30;;;;;;7378314;19;20089;-81
2022/09/08 07:40:38;;;;;;;14.20;3.40;;;19.90;71.70;;;;;;7377822;19;20018;-82
2022/09/08 07:43:13;;;;;;;19.48;3.47;;;19.70;72.60;;;;;;7374614;19;20102;-81
2022/09/08 07:45:48;;;;;;;22.38;4.10;;;19.80;72.60;;;;;;7378522;19;20019;-81
2022/09/08 07:48:26;;;;;;;19.38;3.53;;;20.00;72.40;;;;;;7409376;19;20022;-81
2022/09/08 07:51:06;;;;;;;20.23;3.65;;;19.90;71.90;;;;;;7379788;19;20018;-82
2022/09/08 07:53:57;;;;;;;18.95;3.75;;;20.10;71.80;;;;;;7378888;19;20022;-81
2022/09/08 07:56:35;;;;;;;19.15;3.50;;;19.90;71.20;;;;;;7374130;19;20022;-81
2022/09/08 07:59:19;;;;;;;17.70;3.40;;;20.00;71.90;;;;;;7371280;19;20406;-81
2022/09/08 08:01:56;;;;;;;16.58;3.35;;;20.00;71.70;;;;;;7372494;19;20093;-80
2022/09/08 08:04:59;;;;;;;11.57;3.10;;;20.20;71.30;;;;;;7374745;19;20026;-81
2022/09/08 08:07:35;;;;;;;18.00;3.38;;;20.30;70.80;;;;;;7383445;19;20105;-81
2022/09/08 08:10:19;;;;;;;16.33;2.95;;;20.00;71.70;;;;;;7382122;19;20450;-81
2022/09/08 08:12:57;;;;;;;18.70;3.13;;;20.20;70.60;;;;;;7371832;19;20022;-81
2022/09/08 08:15:36;;;;;;;17.17;3.33;;;20.10;70.80;;;;;;7392756;19;20026;-81
2022/09/08 08:18:11;;;;;;;19.23;2.92;;;20.10;70.60;;;;;;7371532;19;20022;-81
2022/09/08 08:20:51;;;;;;;18.25;2.85;;;19.90;71.30;;;;;;7371296;19;20018;-81
2022/09/08 08:23:41;;;;;;;16.30;3.00;;;20.10;72.00;;;;;;7371066;19;20098;-81
2022/09/08 08:26:25;;;;;;;13.07;3.08;;;20.30;71.00;;;;;;7372808;19;20017;-82
2022/09/08 08:29:07;;;;;;;15.50;2.80;;;20.00;70.50;;;;;;7377859;19;20023;-81
2022/09/08 08:31:45;;;;;;;20.52;3.17;;;19.90;71.40;;;;;;7384779;19;20022;-81
2022/09/08 08:34:20;;;;;;;25.08;3.35;;;20.10;71.10;;;;;;7380588;19;20026;-82
2022/09/08 08:36:50;;;;;;;17.65;3.25;;;20.20;70.30;;;;;;7377166;19;20565;-82
2022/09/08 08:39:22;;;;;;;22.42;3.33;;;20.20;70.00;;;;;;7399943;19;20010;-81
2022/09/08 08:42:09;;;;;;;12.43;2.83;;;20.30;69.50;;;;;;7375131;19;20365;-81
2022/09/08 08:44:50;;;;;;;19.75;2.75;;;20.20;70.20;;;;;;7383169;19;20272;-80
2022/09/08 08:47:51;;;;;;;24.88;3.78;;;20.40;69.70;;;;;;7382619;19;20090;-81
2022/09/08 08:50:34;;;;;;;17.48;3.17;;;20.20;70.20;;;;;;7377621;19;20038;-81
2022/09/08 08:53:23;;;;;;;14.55;2.85;;;20.20;70.30;;;;;;7375830;19;20010;-81
2022/09/08 08:56:02;;;;;;;19.15;3.10;;;20.30;69.70;;;;;;7375542;19;20343;-81
2022/09/08 08:58:48;;;;;;;15.82;3.10;;;19.90;69.80;;;;;;7376176;19;20024;-81
2022/09/08 09:01:31;;;;;;;15.35;2.60;;;19.70;72.50;;;;;;7374323;19;20019;-81
2022/09/08 09:04:27;;;;;;;20.27;2.65;;;20.00;71.20;;;;;;7371665;19;20454;-80
2022/09/08 09:07:30;;;;;;;17.30;2.83;;;20.30;70.40;;;;;;7370879;19;20299;-80
2022/09/08 09:10:19;;;;;;;15.45;2.60;;;20.60;69.90;;;;;;7378267;19;20030;-80
2022/09/08 09:13:19;;;;;;;11.60;2.70;;;20.70;69.10;;;;;;7375973;19;20010;-80
2022/09/08 09:16:02;;;;;;;22.25;2.83;;;20.90;68.90;;;;;;7372425;19;20031;-80
2022/09/08 09:19:02;;;;;;;23.13;2.97;;;20.80;68.90;;;;;;7391506;19;20025;-80
2022/09/08 09:21:54;;;;;;;16.83;2.78;;;20.80;68.40;;;;;;7374016;19;20025;-81
2022/09/08 09:24:38;;;;;;;15.70;2.78;;;21.00;68.90;;;;;;7378390;19;20018;-80
2022/09/08 09:27:21;;;;;;;18.95;3.00;;;21.10;68.60;;;;;;7385730;19;20029;-80
2022/09/08 09:29:58;;;;;;;14.85;3.05;;;21.40;68.40;;;;;;7381294;19;20021;-81
2022/09/08 09:32:49;;;;;;;22.23;2.92;;;21.50;67.00;;;;;;7376482;19;20098;-81
2022/09/08 09:35:35;;;;;;;11.55;2.38;;;21.20;67.00;;;;;;7374782;19;20581;-81
2022/09/08 09:38:23;;;;;;;13.57;2.30;;;21.10;67.50;;;;;;7372013;19;20011;-79
2022/09/08 09:41:30;;;;;;;17.25;2.72;;;21.00;66.10;;;;;;7374739;19;20807;-80
2022/09/08 09:44:23;;;;;;;17.10;2.50;;;21.00;67.20;;;;;;7373758;19;20274;-80
2022/09/08 09:47:25;;;;;;;15.80;2.92;;;21.20;67.10;;;;;;7374364;19;20018;-80
2022/09/08 09:50:28;;;;;;;14.88;2.85;;;21.10;67.40;;;;;;7372211;19;20427;-80
2022/09/08 10:06:26;;;;;;;11.95;2.30;;;20.90;67.10;;;;;;7378292;19;20026;-80
2022/09/08 10:09:21;;;;;;;16.70;2.35;;;21.00;67.20;;;;;;7376622;19;20049;-79
2022/09/08 10:12:21;;;;;;;10.48;2.42;;;21.30;66.70;;;;;;7381872;19;20006;-80
2022/09/08 10:15:29;;;;;;;14.65;2.13;;;21.50;66.30;;;;;;7379576;19;20018;-80
2022/09/08 10:18:27;;;;;;;14.07;2.05;;;21.60;65.80;;;;;;7376178;19;20082;-81
2022/09/08 10:21:20;;;;;;;8.73;1.77;;;21.80;64.10;;;;;;7373588;19;20051;-80
2022/09/08 10:24:28;;;;;;;14.13;2.20;;;21.60;64.70;;;;;;7375516;19;20011;-80
2022/09/08 10:27:25;;;;;;;16.05;2.60;;;21.40;64.20;;;;;;7375076;19;20018;-81
2022/09/08 10:30:15;;;;;;;8.95;1.88;;;21.40;65.90;;;;;;7377801;19;20021;-81
2022/09/08 10:33:12;;;;;;;10.52;1.73;;;21.60;65.10;;;;;;7378665;19;20010;-80
2022/09/08 10:35:44;;;;;;;12.90;2.00;;;21.80;65.80;;;;;;7374621;19;20489;-81
2022/09/08 10:38:37;;;;;;;15.43;2.28;;;21.80;65.20;;;;;;7376625;19;20661;-81
2022/09/08 10:41:30;;;;;;;13.85;1.80;;;21.90;64.40;;;;;;7385322;19;20022;-81
2022/09/08 10:44:21;;;;;;;14.65;1.92;;;21.40;65.50;;;;;;7384609;19;20070;-81
2022/09/08 10:47:28;;;;;;;15.60;2.05;;;21.50;66.30;;;;;;7379463;19;20105;-81
2022/09/08 10:50:21;;;;;;;13.50;2.10;;;21.30;65.00;;;;;;7379243;19;20344;-81
2022/09/08 10:53:24;;;;;;;15.43;1.73;;;21.10;65.70;;;;;;7377064;19;20019;-81
2022/09/08 10:56:10;;;;;;;11.93;1.70;;;21.20;65.80;;;;;;7376144;19;20074;-80
2022/09/08 10:59:15;;;;;;;16.58;2.25;;;21.30;65.10;;;;;;7376422;19;20090;-81
2022/09/08 11:02:12;;;;;;;9.20;2.08;;;21.20;65.00;;;;;;7374872;19;20014;-81
2022/09/08 11:05:11;;;;;;;10.98;1.83;;;20.90;65.70;;;;;;7373584;19;20474;-81
2022/09/08 11:08:17;;;;;;;13.50;1.90;;;21.00;66.40;;;;;;7375792;19;20019;-80
2022/09/08 11:11:15;;;;;;;11.15;2.13;;;21.10;66.10;;;;;;7377585;19;20102;-79
2022/09/08 11:13:59;;;;;;;15.48;2.00;;;21.00;66.10;;;;;;7382065;19;20016;-80
2022/09/08 11:16:52;;;;;;;8.20;1.80;;;21.30;66.20;;;;;;7383362;19;20014;-80
2022/09/08 11:19:39;;;;;;;13.48;1.70;;;21.50;65.20;;;;;;7378343;19;20533;-80
2022/09/08 11:22:30;;;;;;;9.70;1.70;;;22.00;64.10;;;;;;7376201;19;20078;-80
2022/09/08 11:25:18;;;;;;;8.77;1.70;;;21.90;62.30;;;;;;7378104;19;20109;-80
2022/09/08 11:27:56;;;;;;;9.75;1.80;;;21.60;63.00;;;;;;7375244;19;20320;-81
2022/09/08 11:30:37;;;;;;;7.35;1.40;;;22.00;62.80;;;;;;7400091;19;20022;-81
2022/09/08 11:33:21;;;;;;;7.18;1.75;;;22.20;61.30;;;;;;7378289;19;20078;-81
2022/09/08 11:36:15;;;;;;;14.55;1.92;;;21.90;61.40;;;;;;7381645;19;20027;-80
2022/09/08 11:39:14;;;;;;;8.50;1.52;;;21.90;61.70;;;;;;7375538;19;20464;-80
2022/09/08 11:42:06;;;;;;;11.07;2.15;;;22.10;60.90;;;;;;7375005;19;20106;-80
2022/09/08 11:44:52;;;;;;;14.07;1.98;;;22.20;60.90;;;;;;7374570;19;20185;-80
2022/09/08 11:47:42;;;;;;;10.18;1.65;;;22.30;60.40;;;;;;7376273;19;20025;-80
2022/09/08 11:50:30;;;;;;;16.57;1.57;;;22.60;60.20;;;;;;7378307;19;20027;-80
2022/09/08 11:53:14;;;;;;;8.27;2.00;;;22.40;59.60;;;;;;7384554;19;20017;-80
2022/09/08 11:55:59;;;;;;;7.57;1.80;;;22.30;59.70;;;;;;7383628;19;20560;-81
2022/09/08 11:58:43;;;;;;;10.65;1.40;;;22.20;59.60;;;;;;7379166;19;20007;-81
2022/09/08 12:01:31;;;;;;;11.65;1.75;;;22.40;58.80;;;;;;7377654;19;20688;-80
2022/09/08 12:04:17;;;;;;;10.65;2.53;;;22.50;59.60;;;;;;7378161;19;20018;-81
2022/09/08 12:07:30;;;;;;;6.75;1.63;;;22.80;59.60;;;;;;7377438;19;20018;-81
2022/09/08 12:10:33;;;;;;;12.93;1.80;;;23.10;58.30;;;;;;7374720;19;20026;-82
2022/09/08 12:13:07;;;;;;;8.70;1.85;;;23.00;57.40;;;;;;7375872;19;20011;-81
2022/09/08 12:16:05;;;;;;;11.52;2.00;;;22.90;56.90;;;;;;7399741;19;20331;-82
2022/09/08 12:18:55;;;;;;;9.20;1.85;;;23.00;57.10;;;;;;7275680;19;2005031;-81
2022/09/08 12:21:54;;;;;;;6.75;1.40;;;22.90;58.40;;;;;;7400823;19;20082;-81
2022/09/08 12:24:42;;;;;;;17.60;2.13;;;23.10;57.90;;;;;;7374468;19;20078;-81
2022/09/08 12:27:22;;;;;;;8.05;1.77;;;23.30;57.90;;;;;;7373295;19;20014;-81
2022/09/08 12:30:11;;;;;;;8.23;1.80;;;23.50;58.00;;;;;;7373304;19;20606;-81
2022/09/08 12:33:16;;;;;;;9.43;1.88;;;23.30;57.80;;;;;;7370820;19;20014;-82
2022/09/08 12:35:51;;;;;;;9.15;1.90;;;23.20;57.10;;;;;;7372882;19;20780;-81
2022/09/08 12:38:40;;;;;;;10.48;1.92;;;23.10;57.60;;;;;;7373227;19;20460;-82
2022/09/08 12:41:35;;;;;;;12.07;1.95;;;23.20;57.60;;;;;;7367712;19;20015;-81
2022/09/08 12:44:15;;;;;;;12.85;2.08;;;23.10;56.80;;;;;;7369835;19;20014;-82
2022/09/08 12:46:55;;;;;;;18.03;2.57;;;22.90;57.20;;;;;;7380436;19;20460;-82
2022/09/08 12:49:42;;;;;;;10.02;1.60;;;22.80;58.10;;;;;;7377931;19;21264;-81
2022/09/08 12:52:23;;;;;;;11.10;2.00;;;22.90;57.90;;;;;;7368289;19;20834;-81
2022/09/08 12:54:59;;;;;;;;;;;23.00;58.10;;;;;;7369425;19;20071;-81
2022/09/08 12:57:54;;;;;;;8.35;1.70;;;22.90;56.30;;;;;;7390893;19;19974;-81
2022/09/08 13:00:26;;;;;;;11.55;2.20;;;23.10;57.20;;;;;;7374750;19;20025;-81
2022/09/08 13:03:17;;;;;;;6.05;1.50;;;23.10;56.50;;;;;;7377751;19;20627;-81
2022/09/08 13:05:59;;;;;;;7.73;1.60;;;23.10;56.50;;;;;;7383962;19;20090;-81
2022/09/08 13:08:45;;;;;;;7.90;1.88;;;23.20;55.60;;;;;;7383299;19;20087;-81
2022/09/08 13:11:42;;;;;;;16.33;1.70;;;23.60;56.20;;;;;;7384024;19;20011;-81
2022/09/08 13:14:14;;;;;;;7.10;1.58;;;23.50;54.80;;;;;;7376526;19;20384;-81
2022/09/08 13:16:56;;;;;;;9.05;1.75;;;23.50;55.40;;;;;;7372416;19;20024;-82
2022/09/08 13:19:30;;;;;;;16.48;1.67;;;23.90;55.40;;;;;;7377843;19;20014;-81
2022/09/08 13:22:23;;;;;;;8.65;1.38;;;23.90;54.30;;;;;;7376675;19;20355;-81
2022/09/08 13:25:01;;;;;;;9.40;2.13;;;24.00;54.30;;;;;;7377713;19;20023;-80
2022/09/08 13:27:47;;;;;;;7.55;1.80;;;23.90;54.30;;;;;;7407476;19;20537;-80
2022/09/08 13:30:18;;;;;;;8.35;1.40;;;23.90;54.00;;;;;;7388206;19;20058;-81
2022/09/08 13:33:19;;;;;;;11.15;1.65;;;23.90;54.70;;;;;;7383163;19;20086;-81
2022/09/08 13:36:17;;;;;;;13.82;2.17;;;23.50;55.50;;;;;;7379922;19;20093;-81
2022/09/08 13:39:01;;;;;;;7.97;1.98;;;23.70;56.20;;;;;;7386119;19;20028;-81
2022/09/08 13:41:44;;;;;;;10.10;1.77;;;24.00;56.90;;;;;;7394207;19;20027;-81
2022/09/08 13:44:48;;;;;;;10.30;1.77;;;23.70;56.90;;;;;;7392540;19;20109;-81
2022/09/08 13:47:51;;;;;;;9.25;1.60;;;23.40;57.50;;;;;;7381825;19;20059;-80
2022/09/08 13:50:37;;;;;;;9.20;1.95;;;23.60;57.30;;;;;;7379930;19;20014;-81
2022/09/08 13:53:27;;;;;;;7.18;1.55;;;23.70;57.60;;;;;;7377320;19;20054;-81
2022/09/08 13:56:05;;;;;;;15.17;1.97;;;23.70;57.00;;;;;;7375622;19;20415;-81
2022/09/08 13:58:36;;;;;;;8.32;1.45;;;23.70;57.00;;;;;;7373802;19;20015;-81
2022/09/08 14:01:07;;;;;;;;;;;23.60;57.50;;;;;;7374420;19;20473;-82
2022/09/08 14:03:47;;;;;;;10.07;1.92;;;23.60;57.00;;;;;;7397353;19;19918;-82